Pagina principale
METAR-TAF:

METAR-TAF

Aeroporti :

Aeroporto di Parma

Parma, Italia

latitudine: 44-49-17N, longitudine: 010-17-41E, altezza: 50 m

Osservazione

Il bollettino è stato emesso 1 ora e 15 minuti fa, alle 18:50 UTC
Vento 1 kt da sud
Temperature 11°C
Umidità 100%
Pressione 1028 hPa
Visibilità: 6000 m
Nubi sparse ad un'altezza di 5000 ft

METAR: LIMP 161850Z 19001KT 6000 SCT050 11/11 Q1028

Ora: 21:05 (20:05 UTC)

Previsione

Il bollettino è stato emesso 3 ore e 5 minuti fa, alle 17:00 UTC
Previsione valida dal 16 alle 18 UTC al 17 alle 18 UTC
Vento 5 kt da direzioni variabili
Visibilità: 4000 m
Nubi sparse ad un'altezza di 4000 ft
foschia
Temporaneamente
dal 17 alle 00 UTC al 17 alle 08 UTC
Visibilità: 1500 m
banchi di nebbia

TAF: LIMP 161700Z 1618/1718 VRB05KT 4000 BR SCT040 NSC TEMPO 1700/1708 1500 BCFG

Osservazioni e previsioni meteorologiche di più di 4000 aeroporti (messaggi METAR e TAF).

Le stazioni disponibili sono rappresentate dai dischi gialli e rossi sulla carta.

Puntare il mouse per vedere il nome della stazione.

Clicca sopra per visualizzare le osservazioni e previsioni meteorologiche.

Per cambiare la mappa : fare clic sui pulsanti verdi con una croce nera per ingrandire, il pulsante verde con un trattino per diminuire, o sulla freccia verde per le mappe adiacenti.


METAR-TAF: